createdAt,value
2023-02-28T00:02:00.959Z,5.27
2023-02-28T00:05:07.791Z,5.40
2023-02-28T00:08:11.736Z,6.00
2023-02-28T00:11:17.998Z,5.73
2023-02-28T00:14:21.692Z,5.60
2023-02-28T00:17:25.262Z,5.73
2023-02-28T00:20:30.653Z,5.10
2023-02-28T00:23:34.570Z,4.90
2023-02-28T00:26:38.266Z,5.30
2023-02-28T00:29:42.544Z,4.80
2023-02-28T00:32:46.765Z,4.97
2023-02-28T00:35:52.572Z,4.70
2023-02-28T00:38:56.464Z,5.23
2023-02-28T00:42:00.113Z,4.73
2023-02-28T00:45:05.738Z,5.43
2023-02-28T00:48:09.362Z,5.43
2023-02-28T00:51:14.444Z,5.43
2023-02-28T00:54:18.592Z,4.90
2023-02-28T00:57:22.321Z,5.30
2023-02-28T01:00:26.166Z,5.07
2023-02-28T01:03:30.092Z,5.40
2023-02-28T01:06:35.170Z,5.23
2023-02-28T01:09:38.968Z,5.20
2023-02-28T01:12:42.580Z,5.20
2023-02-28T01:15:53.213Z,5.40
2023-02-28T01:18:56.901Z,4.53
2023-02-28T01:22:04.315Z,5.60
2023-02-28T01:25:09.095Z,5.60
2023-02-28T01:28:12.784Z,5.10
2023-02-28T01:31:20.196Z,5.07
2023-02-28T01:34:23.838Z,5.50
2023-02-28T01:37:29.224Z,5.40
2023-02-28T01:40:33.090Z,4.87
2023-02-28T01:44:07.041Z,6.10
2023-02-28T01:47:10.697Z,6.33
2023-02-28T01:50:20.308Z,6.33
2023-02-28T01:53:34.724Z,6.50
2023-02-28T01:56:39.533Z,6.47
2023-02-28T01:59:53.431Z,6.83
2023-02-28T02:03:02.753Z,6.30
2023-02-28T02:06:07.105Z,5.97
2023-02-28T02:09:12.612Z,5.37
2023-02-28T02:12:37.054Z,5.10
2023-02-28T02:15:49.699Z,5.80
2023-02-28T02:19:00.210Z,5.40
2023-02-28T02:22:34.108Z,5.07
2023-02-28T02:25:47.344Z,5.27
2023-02-28T02:29:40.219Z,5.50
2023-02-28T02:33:05.724Z,5.33
2023-02-28T02:36:19.936Z,5.07
2023-02-28T02:39:36.006Z,5.43
2023-02-28T02:42:51.871Z,5.17
2023-02-28T02:46:01.781Z,5.03
2023-02-28T02:49:11.663Z,4.97
2023-02-28T02:52:23.296Z,5.07
2023-02-28T02:55:30.895Z,4.83
2023-02-28T02:58:44.342Z,4.93
2023-02-28T03:01:48.181Z,5.10
2023-02-28T03:05:01.705Z,4.80
2023-02-28T03:08:08.332Z,4.70
2023-02-28T03:11:17.934Z,5.50
2023-02-28T03:14:58.242Z,4.33
2023-02-28T03:18:10.843Z,4.80
2023-02-28T03:21:25.833Z,4.60
2023-02-28T03:24:42.874Z,4.90
2023-02-28T03:28:02.764Z,4.80
2023-02-28T03:31:19.380Z,4.67
2023-02-28T03:34:31.618Z,4.03
2023-02-28T03:37:40.444Z,4.27
2023-02-28T03:40:52.351Z,4.23
2023-02-28T03:44:01.275Z,3.83
2023-02-28T03:47:11.429Z,4.33
2023-02-28T03:50:22.630Z,3.90
2023-02-28T03:53:33.573Z,4.03
2023-02-28T03:56:45.148Z,4.57
2023-02-28T03:59:56.972Z,4.70
2023-02-28T04:03:01.214Z,4.03
2023-02-28T04:06:06.315Z,4.13
2023-02-28T04:09:14.166Z,3.90
2023-02-28T04:12:19.157Z,4.00
2023-02-28T04:15:23.934Z,3.63
2023-02-28T04:18:27.713Z,4.53
2023-02-28T04:21:31.943Z,4.17
2023-02-28T04:24:35.759Z,4.10
2023-02-28T04:27:40.802Z,4.20
2023-02-28T04:30:44.381Z,4.13
2023-02-28T04:33:48.033Z,4.40
2023-02-28T04:37:02.717Z,3.97
2023-02-28T04:40:15.676Z,3.97
2023-02-28T04:43:20.718Z,4.13
2023-02-28T04:46:25.487Z,4.30
2023-02-28T04:49:29.258Z,4.40
2023-02-28T04:52:32.855Z,3.70
2023-02-28T04:55:36.505Z,3.63
2023-02-28T04:58:41.893Z,4.30
2023-02-28T05:01:49.776Z,3.60
2023-02-28T05:04:53.481Z,4.30
2023-02-28T05:07:57.449Z,4.17
2023-02-28T05:11:01.822Z,4.57
2023-02-28T05:14:11.573Z,3.93
2023-02-28T05:17:15.185Z,4.10
2023-02-28T05:20:19.505Z,4.00
2023-02-28T05:23:25.700Z,4.07
2023-02-28T05:26:30.093Z,4.17
2023-02-28T05:29:35.230Z,4.33
2023-02-28T05:32:39.066Z,4.17
2023-02-28T05:35:44.211Z,4.57
2023-02-28T05:38:50.137Z,4.53
2023-02-28T05:41:53.844Z,4.43
2023-02-28T05:44:58.790Z,5.90
2023-02-28T05:48:02.487Z,7.97
2023-02-28T05:51:07.656Z,9.20
2023-02-28T05:54:13.806Z,7.47
2023-02-28T05:57:24.441Z,5.00
2023-02-28T06:00:30.270Z,4.30
2023-02-28T06:03:33.875Z,4.33
2023-02-28T06:06:38.415Z,4.50
2023-02-28T06:09:42.661Z,4.00
2023-02-28T06:12:46.282Z,4.47
2023-02-28T06:15:51.279Z,4.17
2023-02-28T06:18:56.773Z,4.90
2023-02-28T06:22:00.808Z,4.13
2023-02-28T06:25:04.577Z,4.90
2023-02-28T06:28:08.317Z,4.87
2023-02-28T06:31:16.981Z,4.33
2023-02-28T06:34:20.648Z,4.30
2023-02-28T06:37:27.130Z,5.07
2023-02-28T06:40:32.924Z,5.07
2023-02-28T06:43:39.994Z,4.10
2023-02-28T06:46:46.745Z,3.90
2023-02-28T06:49:50.837Z,4.10
2023-02-28T06:52:56.679Z,4.47
2023-02-28T06:56:00.304Z,4.70
2023-02-28T06:59:04.580Z,4.63
2023-02-28T07:02:11.092Z,4.40
2023-02-28T07:05:14.753Z,4.37
2023-02-28T07:08:18.511Z,4.60
2023-02-28T07:11:26.426Z,4.40
2023-02-28T07:14:30.236Z,4.67
2023-02-28T07:17:35.130Z,4.33
2023-02-28T07:20:38.865Z,4.17
2023-02-28T07:23:43.231Z,4.40
2023-02-28T07:26:46.910Z,4.90
2023-02-28T07:29:50.468Z,4.20
2023-02-28T07:32:57.146Z,4.67
2023-02-28T07:36:04.395Z,4.83
2023-02-28T07:39:10.615Z,4.60
2023-02-28T07:42:14.436Z,4.33
2023-02-28T07:45:24.410Z,4.10
2023-02-28T07:48:29.433Z,4.90
2023-02-28T07:51:34.010Z,4.67
2023-02-28T07:54:37.653Z,4.73
2023-02-28T07:57:42.352Z,5.40
2023-02-28T08:00:46.016Z,4.53
2023-02-28T08:03:51.557Z,4.77
2023-02-28T08:06:55.146Z,4.60
2023-02-28T08:09:58.817Z,4.87
2023-02-28T08:13:02.548Z,5.10
2023-02-28T08:16:06.854Z,4.70
2023-02-28T08:19:11.821Z,5.43
2023-02-28T08:22:15.972Z,4.93
2023-02-28T08:25:19.921Z,5.00
2023-02-28T08:28:25.546Z,5.37
2023-02-28T08:31:30.963Z,5.03
2023-02-28T08:34:36.183Z,5.03
2023-02-28T08:37:39.868Z,5.37
2023-02-28T08:40:43.845Z,4.50
2023-02-28T08:43:47.431Z,4.60
2023-02-28T08:46:51.163Z,4.83
2023-02-28T08:49:56.164Z,4.30
2023-02-28T08:53:00.892Z,4.53
2023-02-28T08:56:08.466Z,4.13
2023-02-28T08:59:12.264Z,4.30
2023-02-28T09:02:16.675Z,4.53
2023-02-28T09:05:21.654Z,3.97
2023-02-28T09:08:26.859Z,4.17
2023-02-28T09:11:30.836Z,3.03
2023-02-28T09:14:34.477Z,2.97
2023-02-28T09:17:38.176Z,3.53
2023-02-28T09:20:44.736Z,2.60
2023-02-28T09:23:51.872Z,2.80
2023-02-28T09:27:05.085Z,1.73
2023-02-28T09:30:11.179Z,1.73
2023-02-28T09:33:15.277Z,1.90
2023-02-28T09:36:23.239Z,2.10
2023-02-28T09:39:29.838Z,1.70
2023-02-28T09:42:36.445Z,1.20
2023-02-28T09:45:44.987Z,1.20
2023-02-28T09:48:51.562Z,1.40
2023-02-28T09:52:01.890Z,1.20
2023-02-28T09:55:24.546Z,1.47
2023-02-28T09:58:36.884Z,1.13
2023-02-28T10:01:56.997Z,1.47
2023-02-28T10:05:07.210Z,1.37
2023-02-28T10:08:18.091Z,1.17
2023-02-28T10:11:23.974Z,1.00
2023-02-28T10:14:31.746Z,1.10
2023-02-28T10:17:55.351Z,1.07
2023-02-28T10:21:06.384Z,1.60
2023-02-28T10:24:25.720Z,1.60
2023-02-28T10:27:33.596Z,1.97
2023-02-28T10:30:41.470Z,1.10
2023-02-28T10:33:45.760Z,1.00
2023-02-28T10:36:51.568Z,1.00
2023-02-28T10:39:57.407Z,0.83
2023-02-28T10:43:03.866Z,1.10
2023-02-28T10:46:26.896Z,1.17
2023-02-28T10:49:31.838Z,1.40
2023-02-28T10:52:40.307Z,1.23
2023-02-28T10:55:45.696Z,1.53
2023-02-28T10:58:57.000Z,1.10
2023-02-28T11:02:00.623Z,1.43
2023-02-28T11:05:04.515Z,1.13
2023-02-28T11:08:16.175Z,1.50
2023-02-28T11:11:24.714Z,1.60
2023-02-28T11:14:32.591Z,1.70
2023-02-28T11:17:37.366Z,1.40
2023-02-28T11:20:42.568Z,1.33
2023-02-28T11:23:46.408Z,1.60
2023-02-28T11:26:52.050Z,1.93
2023-02-28T11:29:56.104Z,1.70
2023-02-28T11:32:59.943Z,1.87
2023-02-28T11:36:12.180Z,1.80
2023-02-28T11:39:18.367Z,1.50
2023-02-28T11:42:56.707Z,1.53
2023-02-28T11:46:23.100Z,1.60
2023-02-28T11:49:40.492Z,1.53
2023-02-28T11:52:54.493Z,1.63
2023-02-28T11:56:12.314Z,1.80
2023-02-28T11:59:48.494Z,1.50
2023-02-28T12:03:14.656Z,1.50
2023-02-28T12:06:31.613Z,1.60
2023-02-28T12:09:59.974Z,1.57
2023-02-28T12:13:24.129Z,1.67
2023-02-28T12:16:59.591Z,1.40
2023-02-28T12:20:17.628Z,1.57
2023-02-28T12:23:50.629Z,1.77
2023-02-28T12:27:00.156Z,1.57
2023-02-28T12:30:08.647Z,1.47
2023-02-28T12:33:19.102Z,1.37
2023-02-28T12:36:25.044Z,1.33
2023-02-28T12:39:41.677Z,1.17
2023-02-28T12:42:58.890Z,1.40
2023-02-28T12:46:12.411Z,1.30
2023-02-28T12:49:24.055Z,1.50
2023-02-28T12:52:43.284Z,2.13
2023-02-28T12:55:59.861Z,0.90
2023-02-28T12:59:13.639Z,1.70
2023-02-28T13:03:08.676Z,1.00
2023-02-28T13:06:43.662Z,1.33
2023-02-28T13:09:56.055Z,1.27
2023-02-28T13:12:59.839Z,1.47
2023-02-28T13:16:08.142Z,1.47
2023-02-28T13:19:14.544Z,1.17
2023-02-28T13:22:41.307Z,1.50
2023-02-28T13:25:56.133Z,1.50
2023-02-28T13:29:21.743Z,1.50
2023-02-28T13:32:42.502Z,1.30
2023-02-28T13:35:48.345Z,1.50
2023-02-28T13:38:54.408Z,1.60
2023-02-28T13:41:58.178Z,1.20
2023-02-28T13:45:31.077Z,1.40
2023-02-28T13:48:36.924Z,1.30
2023-02-28T13:51:47.883Z,1.37
2023-02-28T13:55:30.010Z,1.63
2023-02-28T13:58:55.451Z,1.50
2023-02-28T14:02:36.725Z,1.60
2023-02-28T14:05:42.248Z,1.20
2023-02-28T14:08:58.293Z,1.40
2023-02-28T14:12:55.733Z,1.27
2023-02-28T14:16:02.231Z,1.33
2023-02-28T14:19:16.309Z,1.50
2023-02-28T14:22:51.315Z,1.40
2023-02-28T14:26:07.948Z,1.50
2023-02-28T14:29:36.630Z,1.33
2023-02-28T14:32:53.428Z,1.20
2023-02-28T14:36:09.501Z,1.63
2023-02-28T14:39:21.165Z,1.57
2023-02-28T14:42:33.169Z,1.50
2023-02-28T14:45:39.504Z,1.10
2023-02-28T14:48:43.200Z,1.73
2023-02-28T14:51:48.379Z,1.60
2023-02-28T14:54:58.958Z,1.07
2023-02-28T14:58:07.523Z,1.50
2023-02-28T15:01:13.746Z,1.20
2023-02-28T15:04:29.865Z,1.13
2023-02-28T15:07:33.818Z,1.40
2023-02-28T15:10:41.529Z,1.50
2023-02-28T15:13:49.724Z,1.47
2023-02-28T15:17:01.673Z,1.20
2023-02-28T15:20:06.749Z,1.00
2023-02-28T15:23:12.135Z,1.23
2023-02-28T15:26:22.688Z,1.23
2023-02-28T15:29:31.894Z,1.00
2023-02-28T15:32:39.890Z,1.10
2023-02-28T15:35:43.909Z,1.50
2023-02-28T15:38:55.037Z,1.87
2023-02-28T15:42:24.773Z,1.20
2023-02-28T15:45:38.590Z,1.83
2023-02-28T15:48:53.600Z,2.13
2023-02-28T15:52:01.846Z,1.77
2023-02-28T15:55:14.794Z,1.30
2023-02-28T15:58:22.866Z,1.50
2023-02-28T16:01:31.473Z,1.40
2023-02-28T16:04:35.985Z,1.37
2023-02-28T16:07:42.558Z,1.60
2023-02-28T16:10:47.089Z,1.27
2023-02-28T16:13:55.030Z,2.33
2023-02-28T16:17:13.958Z,1.77
2023-02-28T16:20:21.690Z,1.50
2023-02-28T16:23:25.650Z,1.30
2023-02-28T16:26:29.851Z,1.70
2023-02-28T16:29:38.694Z,1.40
2023-02-28T16:32:43.038Z,1.70
2023-02-28T16:35:46.809Z,2.47
2023-02-28T16:38:51.486Z,3.53
2023-02-28T16:41:55.499Z,2.23
2023-02-28T16:45:00.645Z,1.60
2023-02-28T16:48:04.405Z,1.47
2023-02-28T16:51:08.453Z,1.00
2023-02-28T16:54:12.234Z,1.30
2023-02-28T16:57:24.219Z,2.87
2023-02-28T17:00:31.809Z,2.10
2023-02-28T17:03:37.404Z,1.73
2023-02-28T17:06:42.566Z,1.67
2023-02-28T17:09:47.012Z,2.00
2023-02-28T17:12:51.160Z,2.03
2023-02-28T17:15:57.118Z,1.97
2023-02-28T17:19:03.799Z,2.90
2023-02-28T17:22:07.535Z,2.50
2023-02-28T17:25:13.156Z,2.80
2023-02-28T17:28:16.853Z,3.37
2023-02-28T17:31:22.138Z,2.57
2023-02-28T17:34:25.984Z,2.73
2023-02-28T17:37:30.013Z,2.97
2023-02-28T17:40:34.994Z,3.43
2023-02-28T17:43:39.396Z,5.03
2023-02-28T17:46:46.044Z,3.70
2023-02-28T17:49:50.087Z,4.17
2023-02-28T17:52:53.821Z,3.37
2023-02-28T17:55:57.472Z,2.57
2023-02-28T17:59:01.257Z,3.50
2023-02-28T18:02:06.281Z,3.07
2023-02-28T18:05:11.409Z,3.10
2023-02-28T18:08:18.040Z,2.97
2023-02-28T18:11:23.215Z,2.67
2023-02-28T18:14:27.991Z,2.77
2023-02-28T18:17:33.256Z,2.70
2023-02-28T18:20:36.995Z,2.93
2023-02-28T18:23:47.789Z,3.07
2023-02-28T18:26:52.599Z,2.67
2023-02-28T18:29:56.467Z,3.00
2023-02-28T18:33:03.260Z,2.93
2023-02-28T18:36:08.254Z,3.13
2023-02-28T18:39:12.412Z,4.10
2023-02-28T18:42:16.175Z,4.70
2023-02-28T18:45:40.972Z,5.33
2023-02-28T18:48:47.226Z,7.47
2023-02-28T18:51:51.143Z,6.33
2023-02-28T18:54:54.922Z,7.63
2023-02-28T18:57:58.700Z,4.80
2023-02-28T19:01:03.732Z,3.93
2023-02-28T19:04:09.578Z,4.80
2023-02-28T19:07:13.545Z,4.80
2023-02-28T19:10:17.954Z,5.13
2023-02-28T19:13:22.675Z,5.67
2023-02-28T19:16:28.122Z,5.57
2023-02-28T19:19:33.462Z,5.63
2023-02-28T19:22:38.159Z,6.03
2023-02-28T19:25:43.463Z,4.87
2023-02-28T19:28:47.651Z,5.63
2023-02-28T19:31:53.334Z,4.30
2023-02-28T19:34:59.041Z,5.47
2023-02-28T19:38:02.808Z,7.10
2023-02-28T19:41:09.293Z,7.73
2023-02-28T19:44:14.576Z,7.67
2023-02-28T19:47:19.702Z,7.50
2023-02-28T19:50:26.616Z,7.63
2023-02-28T19:53:33.242Z,8.60
2023-02-28T19:56:37.108Z,8.50
2023-02-28T19:59:41.446Z,8.83
2023-02-28T20:02:45.475Z,8.60
2023-02-28T20:06:02.267Z,8.93
2023-02-28T20:09:06.059Z,9.40
2023-02-28T20:12:23.119Z,8.97
2023-02-28T20:15:28.050Z,7.93
2023-02-28T20:18:32.381Z,8.53
2023-02-28T20:21:37.718Z,8.53
2023-02-28T20:24:41.505Z,8.40
2023-02-28T20:27:45.418Z,7.73
2023-02-28T20:30:49.473Z,9.27
2023-02-28T20:33:54.274Z,9.23
2023-02-28T20:36:59.747Z,8.80
2023-02-28T20:40:04.558Z,9.10
2023-02-28T20:43:08.421Z,9.27
2023-02-28T20:46:13.247Z,8.83
2023-02-28T20:49:17.522Z,10.07
2023-02-28T20:52:22.569Z,9.60
2023-02-28T20:55:26.331Z,9.73
2023-02-28T20:58:32.929Z,10.90
2023-02-28T21:01:36.658Z,9.97
2023-02-28T21:04:40.497Z,10.70
2023-02-28T21:07:46.097Z,11.07
2023-02-28T21:10:49.872Z,10.63
2023-02-28T21:13:54.437Z,10.60
2023-02-28T21:16:58.245Z,11.07
2023-02-28T21:20:02.107Z,10.87
2023-02-28T21:23:07.269Z,10.83
2023-02-28T21:26:14.693Z,10.33
2023-02-28T21:29:18.294Z,10.80
2023-02-28T21:32:22.175Z,10.27
2023-02-28T21:35:26.033Z,10.73
2023-02-28T21:38:31.691Z,10.27
2023-02-28T21:41:36.087Z,11.27
2023-02-28T21:44:39.820Z,13.20
2023-02-28T21:47:43.827Z,12.63
2023-02-28T21:50:57.914Z,11.90
2023-02-28T21:54:03.538Z,12.73
2023-02-28T21:57:07.245Z,12.67
2023-02-28T22:00:13.293Z,13.73
2023-02-28T22:03:17.067Z,13.33
2023-02-28T22:06:24.223Z,12.50
2023-02-28T22:09:29.858Z,13.30
2023-02-28T22:12:33.880Z,12.50
2023-02-28T22:15:38.466Z,13.00
2023-02-28T22:18:44.441Z,13.53
2023-02-28T22:21:48.259Z,11.77
2023-02-28T22:24:53.837Z,12.83
2023-02-28T22:27:57.447Z,12.70
2023-02-28T22:31:02.519Z,12.40
2023-02-28T22:34:08.995Z,11.77
2023-02-28T22:37:13.023Z,12.17
2023-02-28T22:40:18.501Z,13.13
2023-02-28T22:43:22.321Z,12.43
2023-02-28T22:46:30.096Z,12.47
2023-02-28T22:49:33.967Z,12.40
2023-02-28T22:52:40.965Z,12.57
2023-02-28T22:55:46.130Z,11.73
2023-02-28T22:58:51.925Z,12.47
2023-02-28T23:01:55.678Z,11.97
2023-02-28T23:04:59.468Z,12.57
2023-02-28T23:08:03.147Z,12.30
2023-02-28T23:11:08.370Z,12.57
2023-02-28T23:14:14.402Z,12.70
2023-02-28T23:17:18.402Z,11.47
2023-02-28T23:20:22.976Z,11.17
2023-02-28T23:23:27.396Z,11.93
2023-02-28T23:26:33.647Z,12.63
2023-02-28T23:29:38.145Z,12.13
2023-02-28T23:32:43.256Z,12.03
2023-02-28T23:35:47.232Z,11.07
2023-02-28T23:38:53.728Z,12.13
2023-02-28T23:41:59.521Z,13.37
2023-02-28T23:45:04.383Z,11.73
2023-02-28T23:48:08.401Z,11.80
2023-02-28T23:51:17.873Z,11.70
2023-02-28T23:54:21.904Z,12.13
2023-02-28T23:57:27.240Z,12.37
